Cascade, MT

2:38 AM MDT on September 17, 2014 (GMT -0600)
Malmstrom AFB | Change Station
CLOSE
Current Station
Airport
Location: Malmstrom AFB,
Elevation: 3527 ft
Nearby Weather Stations

Elev 3527 ft 47.50 °N, 111.19 °W | Updated 42 minutes ago

Partly Cloudy
Partly Cloudy
60 °F
Feels Like 60 °F
N
1
Wind Variable Wind from Variable

Today
High -- | Low -- °F
--% Chance of Precip.
Yesterday
High -- | Low -- °F
Precip. -- in
7:07 AM 7:34 PM
Last Quarter, 38% visible
Pressure 29.86 in
Visibility 10.0 miles
Clouds Few 15000 ft
Dew Point 44 °F
Humidity 54%
Rainfall 0.00 in
Snow Depth Not available.
UV 0 out of 12
Pollen 6.90 out of 12
Air Quality Not available.
Flu Activity Not available.
METAR KGFA 170756Z AUTO VRB01KT 10SM FEW150 16/06 A2992 RMK AO2 SLP111 T01570064

More Conditions Fewer Conditions

Pressure 29.86 in
Visibility 10.0 miles
Clouds Few 15000 ft
Dew Point 44 °F
Humidity 54%
Rainfall 0.00 in
Snow Depth Not available.
UV 0 out of 12
Pollen 6.90 out of 12
Air Quality Not available.
Flu Activity Not available.
METAR KGFA 170756Z AUTO VRB01KT 10SM FEW150 16/06 A2992 RMK AO2 SLP111 T01570064

More Conditions Fewer Conditions

10-Day Weather Forecast

Almanac

Astronomy

Sep. 17, 2014 Rise Set
Actual Time 7:07 AM MDT 7:34 PM MDT
Civil Twilight 6:36 AM MDT 8:05 PM MDT
Nautical Twilight 6:00 AM MDT 8:41 PM MDT
Astronomical Twilight 5:22 AM MDT 9:18 PM MDT
Moon 12:53 AM MDT 4:02 PM MDT
Length of Visible Light 13h 28m
Length of Day
12h 27m
Tomorrow will be 3m 21s shorter.
Last Quarter, 38% of the Moon is Illuminated
Today
Last Quarter
Sep 24
New
Oct 1
First Quarter
Oct 8
Full
Oct 15
Last Quarter

Today's Extremes

State Highs State Lows

Community

WunderPhotos

Upload Photos

1,753,990 photos uploaded!

Nearby

Snow Depth

Station Depth Elevation
Northeast Entrance 0 in 7350 ft
Monument Peak 0 in 8850 ft
Kraft Creek 0 in 4750 ft
Nez Perce Camp 0 in 5650 ft
Boulder Mountain 0 in 7950 ft

Earthquake Activity

City Distance Mag. Time & Date
No recent earthquake activity has been reported nearby.
Minimum magnitude displayed is 2.5.

Coastal Water Temperatures

Place Temperature
No Stations Reporting

Nearby Weather Stations